• vieta
  • image
  • image
  • image
mod_vvisit_countermod_vvisit_countermod_vvisit_countermod_vvisit_countermod_vvisit_countermod_vvisit_counter
mod_vvisit_counterŠiandien621
mod_vvisit_counterVakar632
mod_vvisit_counterŠią savaitę621
mod_vvisit_counterPraėjusią savaitę3560
mod_vvisit_counterŠį mėnesį9064
mod_vvisit_counterPraėjusį mėnesį17136
mod_vvisit_counterViso937850

Mes turime: 61 svečius online
Jūsų IP: 54.224.83.221
 , 
Šiandien: Lie 16, 2018
Oro uostas / Įmonė

Apie įmonę

 

Savivaldybės įmonė Šiaulių oro uostas.

2003 m. lapkričio mėn. Šiaulių miesto savivaldybės tarybos sprendimu įsteigta Savivaldybės įmonė Šiaulių oro uostas, kuriai LR Vyriausybės nutarimu suteikta teisė aptarnauti civilinį susisiekimą kariniame Šiaulių aerodrome.

Įmonė yra ribotos civilinės atsakomybės viešasis juridinis asmuo.

Įmonės pagrindinė veikla – oro uosto eksploatavimas ir oro transporto paslaugos.

Svarbiausi veiklos uždaviniai – teikti viešąsias keleivių ir krovinių vežimo oro transportu paslaugas.

Įmonėje dirba 21 darbuotojas.


Įmonės struktūra:

 

Šiandien

Pirmadienis, 16 Liepa 2018

Orų prognozė aviacijai

[source: ADDS]
METAR
EYSA 161750Z 34004KT CAVOK 21/19 Q1011 BLU TEMPO 3000 TSRA YLO1 =
TAF
TAF EYSA 161700Z 1618/1703 03010KT 7000 BKN025 TEMPO 1618/1622 03020KT 1500 TSRA BKN010 BKN020CB TEMPO 1622/1703 3000 BR BKN004 =
SR / SS: 02:11 / 18:56 UTC (EYSA 2018-07-16)

Paieška

Lankytojai

Mes turime 62 svečius online

tic logo lt